Date,TemperatureHighF,TemperatureAvgF,TemperatureLowF,DewpointHighF,DewpointAvgF,DewpointLowF,HumidityHigh,HumidityAvg,HumidityLow,PressureMaxIn,PressureMinIn,WindSpeedMaxMPH,WindSpeedAvgMPH,GustSpeedMaxMPH,PrecipitationSumIn
2013-6-1,90.1,79.7,73.0,78.4,72.5,67.8,99,81,50,29.83,29.71,11,3,11,0.00
2013-6-2,88.3,80.3,73.0,79.2,74.1,71.1,99,83,59,29.78,29.66,8,2,8,0.00
2013-6-3,89.1,81.2,75.9,79.9,74.5,69.1,99,82,55,29.78,29.67,8,2,8,0.00
2013-6-4,86.7,78.2,74.8,79.3,75.5,71.4,99,92,64,29.79,29.70,9,2,9,0.00
2013-6-5,83.8,77.0,73.9,78.7,75.3,72.7,99,95,76,29.78,29.66,7,2,8,0.00
2013-6-6,83.7,76.8,73.4,78.9,74.0,70.8,99,92,75,29.66,29.39,21,6,26,0.00
2013-6-7,87.3,81.2,76.1,76.4,73.6,69.2,99,79,60,29.73,29.55,9,2,9,0.00
2013-6-8,89.2,80.8,73.9,78.7,75.1,71.8,99,85,61,29.87,29.73,8,2,8,0.00
2013-6-9,93.9,80.2,73.4,78.9,74.3,68.5,99,85,48,29.87,29.78,10,2,10,0.00
2013-6-10,91.4,82.0,75.0,79.3,74.9,69.2,99,82,51,29.86,29.79,9,2,10,0.00
2013-6-11,89.8,82.4,76.3,78.3,75.2,69.4,99,80,56,29.86,29.79,11,2,14,0.00
2013-6-12,89.1,83.5,76.6,76.9,74.6,71.6,94,76,59,29.86,29.78,14,3,14,0.00
2013-6-13,90.9,83.5,77.5,78.8,74.2,68.4,99,76,52,29.83,29.68,9,2,10,0.00
2013-6-14,89.1,83.3,80.1,77.0,73.4,68.4,85,73,54,29.73,29.65,9,2,9,0.00
2013-6-15,88.5,83.5,79.3,78.1,76.5,71.4,90,80,66,29.83,29.68,11,2,11,0.00
2013-6-16,90.0,83.3,78.4,78.4,76.2,72.7,98,80,59,29.85,29.78,11,2,12,0.00
2013-6-17,94.3,84.6,76.6,80.8,74.2,66.2,99,74,46,29.85,29.76,8,2,8,0.00
2013-6-18,91.6,84.6,77.5,78.8,74.6,70.5,99,74,53,29.83,29.75,7,2,7,0.00
2013-6-19,91.2,84.1,76.3,82.0,75.6,72.6,99,77,58,29.81,29.75,13,2,15,0.00
2013-6-20,90.5,83.4,77.0,78.9,73.4,66.8,99,74,50,29.88,29.78,11,2,11,0.00
2013-6-21,90.5,78.4,73.8,78.0,73.6,68.1,99,86,54,29.89,29.80,9,2,9,0.00
2013-6-22,92.7,80.6,72.9,78.5,71.7,62.7,99,78,41,29.89,29.82,12,3,12,0.00
2013-6-23,91.6,81.1,74.8,78.9,74.1,67.1,99,82,48,29.91,29.83,17,3,17,0.00
2013-6-24,93.6,83.0,75.4,78.9,73.7,63.5,99,77,41,29.96,29.83,11,3,12,0.00
2013-6-25,93.6,84.1,76.5,78.4,73.5,64.3,99,74,43,29.92,29.80,11,3,11,0.00
2013-6-26,92.7,82.6,76.3,78.5,74.1,69.7,99,78,51,29.85,29.75,14,2,18,0.00
2013-6-27,92.7,83.0,73.9,77.7,73.8,71.3,99,76,52,29.84,29.72,11,2,11,0.00
2013-6-28,90.5,84.5,79.5,77.0,74.5,68.0,91,73,58,29.97,29.62,11,2,11,0.00
2013-6-29,83.8,80.9,73.4,79.5,75.2,71.2,99,83,74,29.66,29.57,11,2,11,0.35
2013-6-30,89.8,82.7,76.1,78.8,75.3,69.9,99,80,58,29.64,29.56,12,3,12,0.28